createdAt,value
2022-09-23T00:04:38.268Z,1008.46
2022-09-23T00:09:38.163Z,1008.46
2022-09-23T00:14:38.132Z,1008.46
2022-09-23T00:19:38.077Z,1008.45
2022-09-23T00:24:38.058Z,1008.35
2022-09-23T00:29:37.939Z,1008.37
2022-09-23T00:34:37.875Z,1008.38
2022-09-23T00:39:37.797Z,1008.34
2022-09-23T00:44:37.754Z,1008.38
2022-09-23T00:49:37.672Z,1008.43
2022-09-23T00:54:37.603Z,1008.37
2022-09-23T00:59:37.526Z,1008.36
2022-09-23T01:04:37.477Z,1008.31
2022-09-23T01:09:37.402Z,1008.23
2022-09-23T01:14:37.413Z,1008.30
2022-09-23T01:19:37.489Z,1008.23
2022-09-23T01:24:37.247Z,1008.14
2022-09-23T01:29:37.186Z,1008.16
2022-09-23T01:34:37.084Z,1008.11
2022-09-23T01:39:37.027Z,1007.95
2022-09-23T01:44:37.003Z,1008.00
2022-09-23T01:49:36.912Z,1008.01
2022-09-23T01:54:36.852Z,1007.97
2022-09-23T01:59:36.808Z,1007.96
2022-09-23T02:04:36.693Z,1007.89
2022-09-23T02:09:36.675Z,1007.82
2022-09-23T02:14:36.710Z,1007.83
2022-09-23T02:19:36.496Z,1007.80
2022-09-23T02:24:36.639Z,1007.73
2022-09-23T02:29:36.661Z,1007.75
2022-09-23T02:34:36.312Z,1007.76
2022-09-23T02:39:36.240Z,1007.72
2022-09-23T02:44:36.179Z,1007.66
2022-09-23T02:49:36.099Z,1007.51
2022-09-23T02:54:36.047Z,1007.42
2022-09-23T02:59:36.007Z,1007.48
2022-09-23T03:04:35.914Z,1007.42
2022-09-23T03:09:35.814Z,1007.44
2022-09-23T03:14:35.812Z,1007.38
2022-09-23T03:19:35.705Z,1007.35
2022-09-23T03:24:35.657Z,1007.34
2022-09-23T03:29:35.754Z,1007.31
2022-09-23T03:34:35.498Z,1007.17
2022-09-23T03:39:35.473Z,1007.18
2022-09-23T03:44:35.361Z,1007.06
2022-09-23T03:49:35.294Z,1007.05
2022-09-23T03:54:35.287Z,1007.11
2022-09-23T03:59:35.199Z,1007.14
2022-09-23T04:04:35.092Z,1007.11
2022-09-23T04:09:35.023Z,1007.08
2022-09-23T04:14:34.997Z,1007.04
2022-09-23T04:19:34.891Z,1006.96
2022-09-23T04:24:35.011Z,1006.97
2022-09-23T04:29:34.809Z,1006.95
2022-09-23T04:34:34.828Z,1006.90
2022-09-23T04:39:34.697Z,1006.96
2022-09-23T04:44:34.589Z,1006.90
2022-09-23T04:49:34.510Z,1006.88
2022-09-23T04:54:34.477Z,1006.92
2022-09-23T04:59:34.344Z,1006.86
2022-09-23T05:04:34.360Z,1006.82
2022-09-23T05:09:34.699Z,1006.81
2022-09-23T05:14:34.201Z,1006.81
2022-09-23T05:19:34.149Z,1006.87
2022-09-23T05:24:34.056Z,1006.82
2022-09-23T05:29:34.213Z,1006.90
2022-09-23T05:34:33.925Z,1006.96
2022-09-23T05:39:33.993Z,1006.89
2022-09-23T05:44:33.808Z,1006.97
2022-09-23T05:49:58.073Z,1006.92
2022-09-23T05:54:34.651Z,1006.87
2022-09-23T05:59:33.700Z,1006.71
2022-09-23T06:04:33.514Z,1006.78
2022-09-23T06:09:36.511Z,1006.86
2022-09-23T06:14:33.416Z,1006.84
2022-09-23T06:19:33.331Z,1006.95
2022-09-23T06:24:33.260Z,1006.91
2022-09-23T06:29:33.238Z,1006.87
2022-09-23T06:34:45.395Z,1006.93
2022-09-23T06:39:34.095Z,1006.88
2022-09-23T06:44:33.314Z,1006.82
2022-09-23T06:49:32.931Z,1006.79
2022-09-23T06:54:32.858Z,1006.82
2022-09-23T06:59:32.817Z,1006.71
2022-09-23T07:04:35.263Z,1006.69
2022-09-23T07:09:32.714Z,1006.64
2022-09-23T07:14:32.640Z,1006.67
2022-09-23T07:19:32.562Z,1006.64
2022-09-23T07:24:32.529Z,1006.62
2022-09-23T07:29:43.625Z,1006.57
2022-09-23T07:34:33.347Z,1006.58
2022-09-23T07:39:32.332Z,1006.51
2022-09-23T07:44:32.298Z,1006.43
2022-09-23T07:49:32.349Z,1006.46
2022-09-23T07:54:32.272Z,1006.40
2022-09-23T07:59:32.117Z,1006.46
2022-09-23T08:04:32.047Z,1006.42
2022-09-23T08:09:31.891Z,1006.41
2022-09-23T08:14:31.837Z,1006.38
2022-09-23T08:19:31.784Z,1006.40
2022-09-23T08:24:31.734Z,1006.35
2022-09-23T08:29:31.653Z,1006.32
2022-09-23T08:34:31.646Z,1006.28
2022-09-23T08:39:31.497Z,1006.15
2022-09-23T08:44:31.472Z,1006.15
2022-09-23T08:49:31.399Z,1006.10
2022-09-23T08:54:31.418Z,1005.99
2022-09-23T08:59:31.312Z,1006.01
2022-09-23T09:04:31.280Z,1006.01
2022-09-23T09:09:31.162Z,1005.96
2022-09-23T09:14:31.101Z,1005.93
2022-09-23T09:19:30.983Z,1005.87
2022-09-23T09:24:31.011Z,1005.94
2022-09-23T09:29:35.418Z,1005.88
2022-09-23T09:34:31.798Z,1005.84
2022-09-23T09:39:30.798Z,1005.88
2022-09-23T09:44:30.744Z,1005.73
2022-09-23T09:49:30.643Z,1005.67
2022-09-23T09:54:30.633Z,1005.58
2022-09-23T09:59:30.415Z,1005.53
2022-09-23T10:04:30.408Z,1005.48
2022-09-23T10:09:30.388Z,1005.39
2022-09-23T10:14:30.235Z,1005.33
2022-09-23T10:19:30.300Z,1005.38
2022-09-23T10:24:30.630Z,1005.36
2022-09-23T10:29:30.384Z,1005.34
2022-09-23T10:34:30.565Z,1005.32
2022-09-23T10:39:30.342Z,1005.33
2022-09-23T10:44:29.826Z,1005.22
2022-09-23T10:49:29.756Z,1005.15
2022-09-23T10:54:29.698Z,1005.12
2022-09-23T10:59:29.638Z,1005.05
2022-09-23T11:04:29.600Z,1005.11
2022-09-23T11:09:29.547Z,1005.02
2022-09-23T11:14:29.598Z,1004.87
2022-09-23T11:19:29.750Z,1004.89
2022-09-23T11:24:29.755Z,1004.80
2022-09-23T11:29:29.638Z,1004.76
2022-09-23T11:34:29.173Z,1004.73
2022-09-23T11:39:29.108Z,1004.72
2022-09-23T11:44:29.126Z,1004.66
2022-09-23T11:49:30.427Z,1004.63
2022-09-23T11:54:28.995Z,1004.57
2022-09-23T11:59:38.661Z,1004.45
2022-09-23T12:04:30.750Z,1004.44
2022-09-23T12:09:47.590Z,1004.35
2022-09-23T12:14:29.980Z,1004.37
2022-09-23T12:19:28.667Z,1004.30
2022-09-23T12:24:28.662Z,1004.28
2022-09-23T12:34:28.585Z,1004.15
2022-09-23T12:39:28.385Z,1004.15
2022-09-23T12:44:28.273Z,1004.10
2022-09-23T12:49:28.281Z,1004.12
2022-09-23T12:54:28.128Z,1004.11
2022-09-23T12:59:28.078Z,1004.19
2022-09-23T13:04:28.020Z,1003.89
2022-09-23T13:09:28.172Z,1003.88
2022-09-23T13:14:27.922Z,1003.83
2022-09-23T13:19:27.827Z,1003.71
2022-09-23T13:24:27.860Z,1003.69
2022-09-23T13:29:27.677Z,1003.72
2022-09-23T13:34:27.616Z,1003.69
2022-09-23T13:39:27.553Z,1003.54
2022-09-23T13:44:27.474Z,1003.61
2022-09-23T13:49:27.413Z,1003.51
2022-09-23T13:54:27.343Z,1003.51
2022-09-23T13:59:27.374Z,1003.37
2022-09-23T14:04:27.261Z,1003.44
2022-09-23T14:09:27.165Z,1003.38
2022-09-23T14:14:27.133Z,1003.29
2022-09-23T14:19:27.023Z,1003.25
2022-09-23T14:24:26.965Z,1003.22
2022-09-23T14:29:26.897Z,1003.09
2022-09-23T14:34:26.875Z,1003.08
2022-09-23T14:39:26.755Z,1003.02
2022-09-23T14:44:26.699Z,1002.98
2022-09-23T14:49:26.631Z,1002.94
2022-09-23T14:54:26.551Z,1002.92
2022-09-23T14:59:26.490Z,1002.91
2022-09-23T15:04:26.485Z,1002.86
2022-09-23T15:09:26.426Z,1002.77
2022-09-23T15:14:37.730Z,1002.74
2022-09-23T15:19:27.405Z,1002.72
2022-09-23T15:24:26.157Z,1002.71
2022-09-23T15:29:26.099Z,1002.79
2022-09-23T15:34:26.050Z,1002.80
2022-09-23T15:39:35.472Z,1002.77
2022-09-23T15:44:26.931Z,1002.71
2022-09-23T15:49:25.858Z,1002.77
2022-09-23T15:54:25.759Z,1002.69
2022-09-23T15:59:25.700Z,1002.70
2022-09-23T16:04:25.655Z,1002.56
2022-09-23T16:09:25.969Z,1002.59
2022-09-23T16:14:25.591Z,1002.48
2022-09-23T16:19:25.496Z,1002.46
2022-09-23T16:24:28.147Z,1002.46
2022-09-23T16:29:25.316Z,1002.47
2022-09-23T16:34:25.247Z,1002.49
2022-09-23T16:39:25.199Z,1002.55
2022-09-23T16:44:25.112Z,1002.51
2022-09-23T16:49:25.095Z,1002.53
2022-09-23T16:54:24.984Z,1002.58
2022-09-23T16:59:24.917Z,1002.54
2022-09-23T17:04:24.846Z,1002.43
2022-09-23T17:09:24.804Z,1002.35
2022-09-23T17:14:24.721Z,1002.48
2022-09-23T17:19:24.682Z,1002.43
2022-09-23T17:24:24.582Z,1002.46
2022-09-23T17:29:24.714Z,1002.44
2022-09-23T17:34:24.479Z,1002.37
2022-09-23T17:39:24.539Z,1002.39
2022-09-23T17:44:24.471Z,1002.35
2022-09-23T17:49:24.262Z,1002.39
2022-09-23T17:54:24.216Z,1002.46
2022-09-23T17:59:24.252Z,1002.45
2022-09-23T18:04:24.088Z,1002.42
2022-09-23T18:09:24.009Z,1002.49
2022-09-23T18:14:24.043Z,1002.46
2022-09-23T18:19:23.983Z,1002.43
2022-09-23T18:24:32.807Z,1002.36
2022-09-23T18:29:24.958Z,1002.55
2022-09-23T18:34:23.788Z,1002.55
2022-09-23T18:39:24.142Z,1002.53
2022-09-23T18:44:23.710Z,1002.52
2022-09-23T18:49:23.541Z,1002.56
2022-09-23T18:54:23.644Z,1002.54
2022-09-23T18:59:23.368Z,1002.56
2022-09-23T19:04:23.294Z,1002.55
2022-09-23T19:09:23.231Z,1002.55
2022-09-23T19:14:23.308Z,1002.49
2022-09-23T19:19:23.214Z,1002.48
2022-09-23T19:24:23.138Z,1002.46
2022-09-23T19:29:22.985Z,1002.53
2022-09-23T19:34:22.976Z,1002.64
2022-09-23T19:39:22.838Z,1002.58
2022-09-23T19:44:22.732Z,1002.50
2022-09-23T19:49:22.693Z,1002.57
2022-09-23T19:54:22.631Z,1002.54
2022-09-23T19:59:22.674Z,1002.50
2022-09-23T20:04:22.521Z,1002.49
2022-09-23T20:09:22.487Z,1002.45
2022-09-23T20:14:22.480Z,1002.46
2022-09-23T20:19:22.490Z,1002.44
2022-09-23T20:24:22.253Z,1002.37
2022-09-23T20:29:22.359Z,1002.36
2022-09-23T20:34:22.126Z,1002.27
2022-09-23T20:39:22.223Z,1002.35
2022-09-23T20:44:21.993Z,1002.32
2022-09-23T20:49:22.050Z,1002.31
2022-09-23T20:54:21.993Z,1002.30
2022-09-23T20:59:21.935Z,1002.34
2022-09-23T21:04:21.830Z,1002.20
2022-09-23T21:09:21.787Z,1002.25
2022-09-23T21:14:21.739Z,1002.23
2022-09-23T21:19:21.526Z,1002.19
2022-09-23T21:29:22.447Z,1001.99
2022-09-23T21:34:21.421Z,1002.05
2022-09-23T21:39:21.240Z,1002.01
2022-09-23T21:44:21.461Z,1002.07
2022-09-23T21:49:21.217Z,1001.99
2022-09-23T21:54:21.069Z,1002.11
2022-09-23T21:59:20.951Z,1001.97
2022-09-23T22:04:21.193Z,1001.99
2022-09-23T22:09:21.117Z,1002.02
2022-09-23T22:14:20.798Z,1001.92
2022-09-23T22:19:20.690Z,1001.92
2022-09-23T22:24:20.628Z,1001.82
2022-09-23T22:29:20.582Z,1001.85
2022-09-23T22:34:47.580Z,1001.78
2022-09-23T22:39:21.429Z,1001.79
2022-09-23T22:44:20.388Z,1001.72
2022-09-23T22:49:20.498Z,1001.60
2022-09-23T22:54:20.351Z,1001.64
2022-09-23T22:59:20.159Z,1001.62
2022-09-23T23:04:20.090Z,1001.56
2022-09-23T23:09:20.049Z,1001.53
2022-09-23T23:14:19.968Z,1001.51
2022-09-23T23:19:19.914Z,1001.50
2022-09-23T23:24:19.838Z,1001.46
2022-09-23T23:29:19.783Z,1001.37
2022-09-23T23:34:19.728Z,1001.39
2022-09-23T23:39:19.638Z,1001.40
2022-09-23T23:44:19.571Z,1001.41
2022-09-23T23:49:19.556Z,1001.38
2022-09-23T23:54:19.625Z,1001.40
2022-09-23T23:59:19.390Z,1001.32
